createdAt,value
2024-03-14T00:01:15.110Z,11.40
2024-03-14T00:03:41.710Z,11.36
2024-03-14T00:06:11.384Z,11.42
2024-03-14T00:08:38.016Z,11.39
2024-03-14T00:11:10.015Z,11.21
2024-03-14T00:13:36.782Z,11.31
2024-03-14T00:16:06.250Z,11.16
2024-03-14T00:18:33.496Z,11.27
2024-03-14T00:21:00.665Z,11.28
2024-03-14T00:23:27.448Z,11.28
2024-03-14T00:25:54.026Z,11.24
2024-03-14T00:28:20.640Z,11.31
2024-03-14T00:30:47.385Z,11.22
2024-03-14T00:33:14.269Z,11.17
2024-03-14T00:35:40.996Z,11.22
2024-03-14T00:38:08.601Z,11.27
2024-03-14T00:40:36.927Z,11.21
2024-03-14T00:43:03.571Z,11.23
2024-03-14T00:45:30.515Z,11.18
2024-03-14T00:47:57.691Z,11.17
2024-03-14T00:50:24.462Z,11.27
2024-03-14T00:52:51.077Z,11.21
2024-03-14T00:55:18.199Z,11.18
2024-03-14T00:57:44.838Z,11.14
2024-03-14T01:00:13.221Z,11.22
2024-03-14T01:02:40.231Z,11.10
2024-03-14T01:05:07.045Z,11.29
2024-03-14T01:07:33.742Z,11.12
2024-03-14T01:10:00.420Z,11.10
2024-03-14T01:12:27.104Z,11.13
2024-03-14T01:14:53.882Z,11.15
2024-03-14T01:17:20.651Z,11.11
2024-03-14T01:19:48.155Z,11.18
2024-03-14T01:22:17.813Z,11.18
2024-03-14T01:24:44.640Z,11.14
2024-03-14T01:27:11.395Z,11.07
2024-03-14T01:29:39.170Z,11.10
2024-03-14T01:32:05.898Z,10.94
2024-03-14T01:34:32.585Z,11.01
2024-03-14T01:37:03.925Z,10.85
2024-03-14T01:39:32.662Z,10.97
2024-03-14T01:41:59.496Z,10.86
2024-03-14T01:44:38.885Z,10.90
2024-03-14T01:47:06.824Z,10.83
2024-03-14T01:49:34.339Z,10.84
2024-03-14T01:52:00.982Z,10.84
2024-03-14T01:54:27.812Z,10.87
2024-03-14T01:57:00.407Z,10.78
2024-03-14T01:59:29.901Z,10.71
2024-03-14T02:01:58.052Z,10.79
2024-03-14T02:04:34.681Z,10.70
2024-03-14T02:07:14.403Z,10.82
2024-03-14T02:09:41.976Z,10.84
2024-03-14T02:12:09.083Z,10.75
2024-03-14T02:14:35.909Z,10.80
2024-03-14T02:17:06.373Z,10.78
2024-03-14T02:19:33.814Z,10.71
2024-03-14T02:22:03.596Z,10.59
2024-03-14T02:24:32.461Z,10.47
2024-03-14T02:27:05.136Z,10.58
2024-03-14T02:29:31.899Z,10.60
2024-03-14T02:31:58.616Z,10.61
2024-03-14T02:34:26.414Z,10.58
2024-03-14T02:36:53.066Z,10.62
2024-03-14T02:39:24.029Z,10.68
2024-03-14T02:41:51.870Z,10.64
2024-03-14T02:44:19.314Z,10.50
2024-03-14T02:46:52.085Z,10.58
2024-03-14T02:49:22.729Z,10.34
2024-03-14T02:51:49.451Z,10.49
2024-03-14T02:54:16.965Z,10.48
2024-03-14T02:56:48.913Z,10.45
2024-03-14T02:59:15.752Z,10.32
2024-03-14T03:01:42.554Z,10.39
2024-03-14T03:04:10.648Z,10.28
2024-03-14T03:06:46.077Z,10.36
2024-03-14T03:09:13.148Z,10.46
2024-03-14T03:11:39.784Z,10.41
2024-03-14T03:14:06.952Z,10.36
2024-03-14T03:16:34.162Z,10.30
2024-03-14T03:19:01.193Z,10.28
2024-03-14T03:21:32.884Z,10.16
2024-03-14T03:23:59.539Z,10.23
2024-03-14T03:26:26.866Z,10.22
2024-03-14T03:28:53.654Z,10.23
2024-03-14T03:31:20.380Z,10.05
2024-03-14T03:33:49.424Z,10.14
2024-03-14T03:36:16.127Z,10.14
2024-03-14T03:38:43.606Z,10.13
2024-03-14T03:41:13.516Z,10.08
2024-03-14T03:43:40.323Z,10.10
2024-03-14T03:46:10.952Z,10.08
2024-03-14T03:48:38.869Z,10.17
2024-03-14T03:51:06.641Z,10.06
2024-03-14T03:53:36.192Z,9.99
2024-03-14T03:56:06.370Z,9.51
2024-03-14T03:58:35.750Z,9.74
2024-03-14T04:01:11.728Z,9.93
2024-03-14T04:03:41.744Z,9.84
2024-03-14T04:06:12.017Z,9.96
2024-03-14T04:08:38.944Z,10.04
2024-03-14T04:11:09.033Z,9.88
2024-03-14T04:13:36.998Z,9.98
2024-03-14T04:16:05.850Z,9.88
2024-03-14T04:18:33.069Z,9.86
2024-03-14T04:20:59.852Z,9.86
2024-03-14T04:23:26.532Z,9.96
2024-03-14T04:25:57.543Z,9.88
2024-03-14T04:28:24.994Z,9.94
2024-03-14T04:30:54.558Z,9.77
2024-03-14T04:33:21.474Z,9.93
2024-03-14T04:35:48.550Z,9.92
2024-03-14T04:38:15.200Z,9.91
2024-03-14T04:40:41.774Z,9.88
2024-03-14T04:43:11.098Z,9.82
2024-03-14T04:45:37.919Z,9.91
2024-03-14T04:48:07.088Z,9.87
2024-03-14T04:50:34.370Z,9.83
2024-03-14T04:53:00.995Z,9.75
2024-03-14T04:55:28.460Z,9.76
2024-03-14T04:57:55.286Z,9.86
2024-03-14T05:00:23.198Z,9.74
2024-03-14T05:02:52.043Z,9.81
2024-03-14T05:05:19.606Z,9.83
2024-03-14T05:07:46.484Z,9.68
2024-03-14T05:10:20.680Z,9.71
2024-03-14T05:12:48.128Z,9.70
2024-03-14T05:15:16.365Z,9.76
2024-03-14T05:17:43.746Z,9.79
2024-03-14T05:20:15.506Z,9.57
2024-03-14T05:22:43.064Z,9.69
2024-03-14T05:25:12.521Z,9.76
2024-03-14T05:27:39.416Z,9.71
2024-03-14T05:30:06.788Z,9.66
2024-03-14T05:32:34.011Z,9.60
2024-03-14T05:35:01.742Z,9.63
2024-03-14T05:37:29.399Z,9.59
2024-03-14T05:39:57.997Z,9.64
2024-03-14T05:42:24.880Z,9.54
2024-03-14T05:44:51.701Z,9.54
2024-03-14T05:47:18.392Z,9.60
2024-03-14T05:49:45.113Z,9.64
2024-03-14T05:52:12.909Z,9.65
2024-03-14T05:54:40.346Z,9.64
2024-03-14T05:57:07.714Z,9.48
2024-03-14T05:59:36.382Z,9.41
2024-03-14T06:02:03.328Z,9.42
2024-03-14T06:04:31.418Z,9.41
2024-03-14T06:06:58.173Z,9.36
2024-03-14T06:09:33.072Z,9.44
2024-03-14T06:12:00.782Z,9.36
2024-03-14T06:14:27.509Z,9.48
2024-03-14T06:16:54.259Z,9.60
2024-03-14T06:19:23.467Z,9.47
2024-03-14T06:21:51.585Z,9.53
2024-03-14T06:24:18.652Z,9.54
2024-03-14T06:26:48.777Z,9.52
2024-03-14T06:29:15.598Z,9.42
2024-03-14T06:31:42.940Z,9.49
2024-03-14T06:34:12.618Z,9.59
2024-03-14T06:36:39.357Z,9.56
2024-03-14T06:39:09.197Z,9.61
2024-03-14T06:41:36.367Z,9.49
2024-03-14T06:44:03.347Z,9.84
2024-03-14T06:46:30.509Z,9.75
2024-03-14T06:48:57.521Z,9.77
2024-03-14T06:51:24.433Z,9.74
2024-03-14T06:53:51.237Z,9.75
2024-03-14T06:56:18.662Z,9.70
2024-03-14T06:58:50.448Z,9.85
2024-03-14T07:01:19.086Z,9.94
2024-03-14T07:03:45.752Z,9.86
2024-03-14T07:06:13.576Z,9.92
2024-03-14T07:08:40.552Z,10.21
2024-03-14T07:11:07.345Z,10.13
2024-03-14T07:13:37.147Z,10.17
2024-03-14T07:16:10.421Z,10.12
2024-03-14T07:18:38.224Z,10.28
2024-03-14T07:21:05.614Z,10.41
2024-03-14T07:23:32.953Z,10.41
2024-03-14T07:26:00.448Z,10.54
2024-03-14T07:28:27.632Z,10.62
2024-03-14T07:30:56.449Z,10.60
2024-03-14T07:33:23.489Z,10.72
2024-03-14T07:35:51.541Z,10.77
2024-03-14T07:38:18.128Z,10.83
2024-03-14T07:40:44.868Z,10.87
2024-03-14T07:43:13.945Z,10.72
2024-03-14T07:45:40.766Z,10.86
2024-03-14T07:48:11.287Z,11.07
2024-03-14T07:50:38.172Z,11.07
2024-03-14T07:53:10.378Z,10.99
2024-03-14T07:55:38.549Z,11.20
2024-03-14T07:58:05.643Z,11.21
2024-03-14T08:00:33.039Z,11.45
2024-03-14T08:02:59.803Z,11.58
2024-03-14T08:05:27.198Z,11.65
2024-03-14T08:08:04.848Z,11.62
2024-03-14T08:10:46.749Z,11.53
2024-03-14T08:13:18.737Z,11.78
2024-03-14T08:15:53.825Z,11.93
2024-03-14T08:18:24.289Z,11.80
2024-03-14T08:20:53.773Z,11.87
2024-03-14T08:23:21.979Z,12.13
2024-03-14T08:25:48.982Z,12.27
2024-03-14T08:28:18.168Z,12.46
2024-03-14T08:30:46.552Z,12.67
2024-03-14T08:33:15.062Z,12.63
2024-03-14T08:35:44.442Z,12.98
2024-03-14T08:38:15.237Z,14.39
2024-03-14T08:40:43.416Z,15.38
2024-03-14T08:43:13.191Z,15.13
2024-03-14T08:45:40.344Z,16.04
2024-03-14T08:48:10.708Z,17.24
2024-03-14T08:50:41.496Z,17.76
2024-03-14T08:53:11.379Z,18.27
2024-03-14T08:55:41.342Z,18.53
2024-03-14T08:58:09.701Z,18.73
2024-03-14T09:00:36.427Z,18.90
2024-03-14T09:03:04.526Z,18.31
2024-03-14T09:05:31.843Z,19.07
2024-03-14T09:07:58.570Z,19.52
2024-03-14T09:10:26.523Z,19.25
2024-03-14T09:12:54.217Z,19.32
2024-03-14T09:15:21.937Z,17.80
2024-03-14T09:17:49.685Z,19.01
2024-03-14T09:20:21.238Z,19.19
2024-03-14T09:22:55.803Z,20.36
2024-03-14T09:25:24.535Z,20.24
2024-03-14T09:27:53.461Z,19.84
2024-03-14T09:30:23.628Z,20.63
2024-03-14T09:32:52.409Z,21.41
2024-03-14T09:35:27.891Z,20.07
2024-03-14T09:37:56.341Z,18.62
2024-03-14T09:40:24.489Z,19.17
2024-03-14T09:43:01.257Z,20.51
2024-03-14T09:45:30.411Z,21.66
2024-03-14T09:47:58.290Z,20.77
2024-03-14T09:50:28.003Z,20.49
2024-03-14T09:52:56.066Z,20.90
2024-03-14T09:55:30.100Z,20.44
2024-03-14T09:57:57.811Z,21.39
2024-03-14T10:00:27.326Z,21.74
2024-03-14T10:02:54.516Z,21.96
2024-03-14T10:05:22.997Z,22.57
2024-03-14T10:07:50.799Z,21.32
2024-03-14T10:10:18.046Z,21.17
2024-03-14T10:12:55.795Z,21.65
2024-03-14T10:15:23.383Z,20.78
2024-03-14T10:17:53.596Z,20.98
2024-03-14T10:20:21.341Z,20.27
2024-03-14T10:22:51.578Z,20.49
2024-03-14T10:25:24.459Z,20.74
2024-03-14T10:28:05.202Z,20.64
2024-03-14T10:30:38.507Z,21.45
2024-03-14T10:33:09.426Z,20.18
2024-03-14T10:35:37.905Z,20.88
2024-03-14T10:38:12.589Z,21.24
2024-03-14T10:40:43.106Z,22.59
2024-03-14T10:43:12.569Z,21.75
2024-03-14T10:45:39.659Z,21.64
2024-03-14T10:48:09.723Z,21.27
2024-03-14T10:50:38.167Z,21.51
2024-03-14T10:53:06.919Z,21.57
2024-03-14T10:55:35.026Z,21.25
2024-03-14T10:58:06.011Z,20.98
2024-03-14T11:00:35.860Z,20.81
2024-03-14T11:03:05.131Z,21.02
2024-03-14T11:05:33.161Z,21.14
2024-03-14T11:08:04.391Z,20.73
2024-03-14T11:10:33.457Z,21.05
2024-03-14T11:13:06.828Z,21.31
2024-03-14T11:15:37.856Z,21.06
2024-03-14T11:18:08.559Z,21.11
2024-03-14T11:20:37.274Z,20.66
2024-03-14T11:23:11.589Z,20.53
2024-03-14T11:25:44.012Z,21.00
2024-03-14T11:28:13.563Z,20.57
2024-03-14T11:30:40.433Z,20.79
2024-03-14T11:33:09.072Z,21.60
2024-03-14T11:35:45.374Z,21.25
2024-03-14T11:38:15.150Z,21.34
2024-03-14T11:40:42.767Z,20.44
2024-03-14T11:43:14.989Z,20.75
2024-03-14T11:45:41.850Z,20.84
2024-03-14T11:48:10.257Z,21.01
2024-03-14T11:50:39.289Z,21.03
2024-03-14T11:53:12.688Z,20.74
2024-03-14T11:55:41.004Z,20.15
2024-03-14T11:58:18.527Z,20.25
2024-03-14T12:00:49.051Z,19.74
2024-03-14T12:03:16.770Z,19.81
2024-03-14T12:05:52.901Z,19.42
2024-03-14T12:08:20.256Z,19.53
2024-03-14T12:10:56.729Z,19.64
2024-03-14T12:13:28.114Z,19.54
2024-03-14T12:16:05.609Z,19.39
2024-03-14T12:18:33.823Z,19.45
2024-03-14T12:21:02.131Z,19.35
2024-03-14T12:23:29.792Z,19.00
2024-03-14T12:26:08.881Z,19.05
2024-03-14T12:28:36.422Z,18.94
2024-03-14T12:31:04.591Z,18.84
2024-03-14T12:33:32.331Z,18.99
2024-03-14T12:36:02.097Z,19.07
2024-03-14T12:38:29.689Z,19.40
2024-03-14T12:40:59.455Z,19.41
2024-03-14T12:43:32.458Z,19.57
2024-03-14T12:46:02.255Z,19.53
2024-03-14T12:48:30.138Z,19.38
2024-03-14T12:51:13.683Z,19.26
2024-03-14T12:53:43.820Z,19.30
2024-03-14T12:56:12.167Z,19.43
2024-03-14T12:58:39.142Z,19.01
2024-03-14T13:01:07.553Z,19.04
2024-03-14T13:03:34.449Z,18.89
2024-03-14T13:06:01.654Z,18.80
2024-03-14T13:08:35.134Z,18.56
2024-03-14T13:11:17.730Z,18.77
2024-03-14T13:13:44.768Z,18.89
2024-03-14T13:16:17.372Z,18.70
2024-03-14T13:18:44.688Z,18.62
2024-03-14T13:21:12.552Z,18.51
2024-03-14T13:23:42.355Z,18.67
2024-03-14T13:26:13.739Z,18.49
2024-03-14T13:28:41.595Z,18.73
2024-03-14T13:31:13.716Z,18.67
2024-03-14T13:33:41.004Z,18.64
2024-03-14T13:36:11.353Z,18.50
2024-03-14T13:38:38.844Z,18.64
2024-03-14T13:41:06.150Z,18.85
2024-03-14T13:43:35.267Z,18.72
2024-03-14T13:46:02.802Z,18.66
2024-03-14T13:48:34.532Z,18.56
2024-03-14T13:51:04.134Z,18.46
2024-03-14T13:53:33.109Z,18.48
2024-03-14T13:56:01.046Z,18.46
2024-03-14T13:58:27.765Z,18.41
2024-03-14T14:01:00.872Z,18.35
2024-03-14T14:03:29.114Z,18.15
2024-03-14T14:05:57.432Z,18.20
2024-03-14T14:08:31.139Z,18.14
2024-03-14T14:10:58.233Z,18.09
2024-03-14T14:13:24.929Z,18.00
2024-03-14T14:15:53.679Z,17.96
2024-03-14T14:18:20.566Z,18.04
2024-03-14T14:20:47.327Z,18.28
2024-03-14T14:23:14.099Z,18.18
2024-03-14T14:25:40.702Z,18.24
2024-03-14T14:28:10.382Z,18.33
2024-03-14T14:30:37.881Z,18.35
2024-03-14T14:33:04.979Z,18.40
2024-03-14T14:35:32.060Z,18.31
2024-03-14T14:37:59.207Z,18.44
2024-03-14T14:40:25.888Z,18.39
2024-03-14T14:42:55.146Z,18.42
2024-03-14T14:45:22.001Z,18.56
2024-03-14T14:47:48.682Z,18.55
2024-03-14T14:50:15.445Z,18.54
2024-03-14T14:52:42.031Z,18.68
2024-03-14T14:55:15.699Z,18.54
2024-03-14T14:57:44.054Z,18.44
2024-03-14T15:00:18.687Z,18.61
2024-03-14T15:02:47.089Z,18.41
2024-03-14T15:05:14.237Z,18.31
2024-03-14T15:07:44.277Z,18.26
2024-03-14T15:10:14.657Z,18.38
2024-03-14T15:12:49.965Z,18.19
2024-03-14T15:15:24.093Z,18.21
2024-03-14T15:17:51.777Z,18.03
2024-03-14T15:20:22.909Z,17.91
2024-03-14T15:22:51.538Z,17.77
2024-03-14T15:25:18.258Z,17.84
2024-03-14T15:27:46.108Z,17.66
2024-03-14T15:30:13.623Z,17.65
2024-03-14T15:32:43.604Z,17.60
2024-03-14T15:35:12.593Z,17.84
2024-03-14T15:37:39.854Z,17.60
2024-03-14T15:40:10.997Z,17.75
2024-03-14T15:42:37.998Z,17.76
2024-03-14T15:45:06.377Z,17.79
2024-03-14T15:47:34.170Z,17.73
2024-03-14T15:50:01.475Z,17.67
2024-03-14T15:52:28.243Z,17.81
2024-03-14T15:54:55.172Z,17.89
2024-03-14T15:57:23.245Z,17.90
2024-03-14T15:59:50.210Z,17.81
2024-03-14T16:02:16.990Z,17.83
2024-03-14T16:04:46.680Z,17.83
2024-03-14T16:07:13.635Z,17.83
2024-03-14T16:09:42.197Z,17.80
2024-03-14T16:12:09.784Z,17.79
2024-03-14T16:14:37.173Z,17.70
2024-03-14T16:17:04.125Z,17.65
2024-03-14T16:19:31.370Z,17.57
2024-03-14T16:21:58.362Z,17.46
2024-03-14T16:24:27.057Z,17.43
2024-03-14T16:26:54.200Z,17.43
2024-03-14T16:29:24.023Z,17.34
2024-03-14T16:31:53.724Z,17.28
2024-03-14T16:34:20.584Z,17.31
2024-03-14T16:36:47.745Z,17.17
2024-03-14T16:39:20.666Z,17.30
2024-03-14T16:41:48.588Z,17.27
2024-03-14T16:44:15.797Z,17.25
2024-03-14T16:46:44.769Z,17.15
2024-03-14T16:49:12.850Z,17.03
2024-03-14T16:51:41.703Z,16.98
2024-03-14T16:54:10.224Z,17.03
2024-03-14T16:56:38.675Z,16.80
2024-03-14T16:59:07.437Z,16.93
2024-03-14T17:01:36.937Z,16.86
2024-03-14T17:04:04.126Z,16.86
2024-03-14T17:06:31.193Z,16.80
2024-03-14T17:08:58.055Z,16.81
2024-03-14T17:11:25.177Z,16.66
2024-03-14T17:13:53.548Z,16.77
2024-03-14T17:16:24.728Z,16.69
2024-03-14T17:18:53.179Z,16.66
2024-03-14T17:21:22.059Z,16.66
2024-03-14T17:23:48.928Z,16.65
2024-03-14T17:26:16.113Z,16.65
2024-03-14T17:28:44.569Z,16.60
2024-03-14T17:31:14.456Z,16.42
2024-03-14T17:33:43.794Z,16.30
2024-03-14T17:36:18.647Z,16.29
2024-03-14T17:38:45.529Z,16.14
2024-03-14T17:41:12.452Z,16.43
2024-03-14T17:43:42.063Z,16.38
2024-03-14T17:46:08.898Z,16.29
2024-03-14T17:48:35.705Z,16.27
2024-03-14T17:51:02.514Z,16.30
2024-03-14T17:53:29.504Z,16.28
2024-03-14T17:55:56.182Z,16.29
2024-03-14T17:58:22.745Z,16.09
2024-03-14T18:00:49.652Z,16.01
2024-03-14T18:03:18.175Z,16.16
2024-03-14T18:05:44.984Z,16.19
2024-03-14T18:08:11.662Z,16.19
2024-03-14T18:10:38.255Z,16.12
2024-03-14T18:13:06.322Z,16.03
2024-03-14T18:15:33.236Z,16.12
2024-03-14T18:18:00.027Z,16.06
2024-03-14T18:20:28.070Z,16.01
2024-03-14T18:22:56.537Z,15.90
2024-03-14T18:25:23.414Z,15.92
2024-03-14T18:27:52.169Z,15.85
2024-03-14T18:30:21.996Z,15.85
2024-03-14T18:32:50.117Z,15.89
2024-03-14T18:35:23.334Z,15.85
2024-03-14T18:37:57.104Z,15.75
2024-03-14T18:40:28.269Z,15.85
2024-03-14T18:42:58.570Z,15.85
2024-03-14T18:45:26.015Z,15.72
2024-03-14T18:47:52.640Z,15.74
2024-03-14T18:50:22.916Z,15.72
2024-03-14T18:52:52.134Z,15.72
2024-03-14T18:55:21.827Z,15.82
2024-03-14T18:57:49.915Z,15.67
2024-03-14T19:00:20.511Z,15.81
2024-03-14T19:02:48.179Z,15.54
2024-03-14T19:05:14.814Z,15.80
2024-03-14T19:07:41.426Z,15.74
2024-03-14T19:10:08.233Z,15.56
2024-03-14T19:12:34.849Z,15.69
2024-03-14T19:15:01.600Z,15.69
2024-03-14T19:17:28.313Z,15.58
2024-03-14T19:19:54.945Z,15.69
2024-03-14T19:22:22.462Z,15.55
2024-03-14T19:24:49.693Z,15.63
2024-03-14T19:27:17.047Z,15.44
2024-03-14T19:29:43.927Z,15.64
2024-03-14T19:32:10.631Z,15.65
2024-03-14T19:34:37.319Z,15.56
2024-03-14T19:37:05.095Z,15.52
2024-03-14T19:39:34.242Z,15.37
2024-03-14T19:42:01.652Z,15.45
2024-03-14T19:44:31.154Z,15.39
2024-03-14T19:46:58.734Z,15.40
2024-03-14T19:49:25.778Z,15.36
2024-03-14T19:51:52.452Z,15.42
2024-03-14T19:54:19.205Z,15.39
2024-03-14T19:56:46.121Z,15.36
2024-03-14T19:59:12.819Z,15.26
2024-03-14T20:01:39.739Z,15.28
2024-03-14T20:04:06.701Z,15.32
2024-03-14T20:06:33.460Z,15.32
2024-03-14T20:09:00.234Z,15.27
2024-03-14T20:11:27.098Z,15.25
2024-03-14T20:13:53.721Z,15.23
2024-03-14T20:16:20.368Z,15.22
2024-03-14T20:18:47.686Z,15.19
2024-03-14T20:21:15.199Z,15.18
2024-03-14T20:23:44.130Z,15.04
2024-03-14T20:26:12.879Z,15.09
2024-03-14T20:28:40.653Z,15.01
2024-03-14T20:31:09.265Z,15.13
2024-03-14T20:33:36.816Z,15.14
2024-03-14T20:36:05.683Z,14.98
2024-03-14T20:38:33.309Z,14.99
2024-03-14T20:41:03.069Z,14.96
2024-03-14T20:43:31.428Z,14.91
2024-03-14T20:45:58.142Z,14.96
2024-03-14T20:48:25.152Z,14.82
2024-03-14T20:50:52.023Z,14.82
2024-03-14T20:53:19.121Z,14.67
2024-03-14T20:55:55.971Z,14.82
2024-03-14T20:58:26.301Z,14.67
2024-03-14T21:00:53.705Z,14.96
2024-03-14T21:03:20.469Z,14.87
2024-03-14T21:05:48.965Z,14.91
2024-03-14T21:08:17.590Z,14.88
2024-03-14T21:10:47.331Z,14.95
2024-03-14T21:13:14.186Z,14.95
2024-03-14T21:15:41.362Z,14.92
2024-03-14T21:18:08.416Z,14.75
2024-03-14T21:20:35.253Z,14.75
2024-03-14T21:23:03.264Z,14.66
2024-03-14T21:25:30.308Z,14.65
2024-03-14T21:28:03.109Z,14.78
2024-03-14T21:30:30.051Z,14.78
2024-03-14T21:32:57.125Z,14.64
2024-03-14T21:35:24.246Z,14.43
2024-03-14T21:37:52.723Z,14.54
2024-03-14T21:40:23.580Z,14.45
2024-03-14T21:42:51.686Z,14.57
2024-03-14T21:45:19.887Z,14.47
2024-03-14T21:47:47.301Z,14.45
2024-03-14T21:50:17.530Z,14.39
2024-03-14T21:52:45.739Z,14.45
2024-03-14T21:55:15.342Z,14.34
2024-03-14T21:57:45.977Z,14.31
2024-03-14T22:00:18.122Z,14.05
2024-03-14T22:02:48.035Z,14.24
2024-03-14T22:05:15.201Z,14.12
2024-03-14T22:07:41.814Z,14.34
2024-03-14T22:10:09.036Z,14.41
2024-03-14T22:12:36.070Z,14.34
2024-03-14T22:15:04.228Z,14.21
2024-03-14T22:17:32.301Z,14.13
2024-03-14T22:19:59.159Z,14.20
2024-03-14T22:22:25.852Z,14.23
2024-03-14T22:24:52.478Z,14.20
2024-03-14T22:27:19.212Z,14.07
2024-03-14T22:29:45.823Z,13.98
2024-03-14T22:32:12.405Z,14.03
2024-03-14T22:34:39.105Z,13.87
2024-03-14T22:37:06.117Z,14.01
2024-03-14T22:39:33.548Z,14.00
2024-03-14T22:42:00.345Z,13.99
2024-03-14T22:44:26.948Z,13.87
2024-03-14T22:46:53.510Z,13.97
2024-03-14T22:49:20.443Z,14.24
2024-03-14T22:51:47.109Z,14.16
2024-03-14T22:54:14.224Z,14.22
2024-03-14T22:56:40.900Z,14.25
2024-03-14T22:59:08.344Z,14.26
2024-03-14T23:01:38.644Z,14.18
2024-03-14T23:04:09.484Z,14.23
2024-03-14T23:06:39.427Z,14.22
2024-03-14T23:09:09.645Z,14.29
2024-03-14T23:11:36.389Z,14.40
2024-03-14T23:14:03.491Z,14.32
2024-03-14T23:16:34.137Z,14.17
2024-03-14T23:19:04.186Z,14.25
2024-03-14T23:21:31.546Z,14.32
2024-03-14T23:23:59.182Z,14.30
2024-03-14T23:26:33.400Z,14.39
2024-03-14T23:29:03.091Z,14.29
2024-03-14T23:31:30.340Z,14.22
2024-03-14T23:33:57.274Z,14.26
2024-03-14T23:36:23.989Z,14.30
2024-03-14T23:38:51.383Z,14.33
2024-03-14T23:41:18.222Z,14.23
2024-03-14T23:43:47.015Z,14.26
2024-03-14T23:46:15.253Z,14.48
2024-03-14T23:48:42.299Z,14.39
2024-03-14T23:51:10.145Z,14.36
2024-03-14T23:53:37.015Z,14.48
2024-03-14T23:56:03.943Z,14.43
2024-03-14T23:58:30.537Z,14.45
